Chang Sheng — V3PK — position and weather

sailwx.info

Track history (hours):
 
Tides and Currents Weather Stations Pressure Air Temp Water Temp Dewpoint Dewpoint Depression Visibility Wind Speed Wind Dir Waves Ship Positions

Chang Sheng

Last reported at 2014-Sep-12 12:11 UTC. Time now 2014-Sep-22 22:14 UTC.
Position N 36°42' E 122°42'.
Warning: this ship's position is 10 days out of date.

Length 86 m; draft 5.9 m.

Type: Cargo ship. MMSI: 312161000.

Date/timePositionNaut miles runAvg speedWind from/ knotsBaromVisibWave heightAir tempDewpointWater temp
2014-Sep-12 12:11N 36°42' E 122°42'5 7.6
2014-Sep-12 11:33N 36°46' E 122°38'8 7.7
2014-Sep-12 10:33N 36°51' E 122°31'2 0.1
2014-Sep-11 19:32N 36°52' E 122°32'9 9.3
2014-Sep-11 18:33N 36°59' E 122°39'1010.0
2014-Sep-11 17:33N 37°08' E 122°45'10 9.9
2014-Sep-11 16:33N 37°18' E 122°47'12 9.0
2014-Sep-11 15:14N 37°30' E 122°44'13 7.2
2014-Sep-11 13:30N 37°35' E 122°29'6 6.6
2014-Sep-11 12:33N 37°37' E 122°22'7 6.5
2014-Sep-11 11:30N 37°39' E 122°13'6 6.7
2014-Sep-11 10:32N 37°41' E 122°06'7 7.3
2014-Sep-11 09:33N 37°43' E 121°57'8 7.7
2014-Sep-11 08:32N 37°45' E 121°48'8 7.9
2014-Sep-11 07:33N 37°48' E 121°38'8 7.7
2014-Sep-11 06:32N 37°50' E 121°29'7 7.2
2014-Sep-11 05:33N 37°52' E 121°20'7 7.0
2014-Sep-11 04:33N 37°55' E 121°12'8 6.9
2014-Sep-11 03:25N 37°57' E 121°03'108 7.7
2014-Sep-10 13:27N 38°45' E 118°59'8 8.8
2014-Sep-10 12:33N 38°47' E 118°49'19 9.4
2014-Sep-10 10:30N 38°49' E 118°24'23 7.9
2014-Sep-10 07:33N 38°57' E 117°56'7 7.4
2014-Sep-10 06:33N 38°58' E 117°47'1 0.9
2014-Sep-10 05:31N 38°59' E 117°46'0 0.0
2014-Sep-10 04:31N 38°59' E 117°46'0 0.0
2014-Sep-10 03:31N 38°59' E 117°46'0 0.0
2014-Sep-10 02:31N 38°59' E 117°46'0 0.0
2014-Sep-10 01:31N 38°59' E 117°46'0 0.0
2014-Sep-10 00:25N 38°59' E 117°46'0 0.0
2014-Sep-09 23:13N 38°59' E 117°46'0 0.0
2014-Sep-09 22:25N 38°59' E 117°46'0 0.0
2014-Sep-09 21:25N 38°59' E 117°46'0 0.0
2014-Sep-09 20:31N 38°59' E 117°46'4 4.2
2014-Sep-09 19:33N 38°58' E 117°51'7 5.8
2014-Sep-09 18:17N 38°59' E 118°00'0 0.0
2014-Sep-09 13:26N 38°59' E 118°00'0 0.0
2014-Sep-09 10:32N 38°59' E 118°00'0 0.0
2014-Sep-09 09:32N 38°59' E 118°00'0 0.0
2014-Sep-09 05:14N 38°59' E 118°00'0 0.0
2014-Sep-09 01:20N 38°59' E 118°00'0 0.0
2014-Sep-09 00:20N 38°59' E 118°00'0 0.0
2014-Sep-08 23:07N 38°59' E 118°00'0 0.0
2014-Sep-08 21:32N 38°59' E 118°00'0 0.0
2014-Sep-08 20:32N 38°59' E 118°00'0 0.0
2014-Sep-08 19:13N 38°59' E 118°00'0 0.0
2014-Sep-08 15:32N 38°59' E 118°00'0 0.0
2014-Sep-08 12:08N 38°59' E 118°00'0 0.0
2014-Sep-08 09:26N 38°59' E 118°00'0 0.0
2014-Sep-08 08:20N 38°59' E 118°00'0 0.0
2014-Sep-08 01:31N 38°59' E 118°00'0 0.1
2014-Sep-08 00:25N 38°59' E 118°00'0 0.0
2014-Sep-07 23:20N 38°59' E 118°00'169 8.1
2014-Sep-07 02:32N 37°46' E 121°14'7 7.4
2014-Sep-07 01:33N 37°39' E 121°17'7 5.9
2014-Sep-07 00:26N 37°38' E 121°08'0 0.0
2014-Sep-06 23:32N 37°38' E 121°08'0 0.0
2014-Sep-06 22:32N 37°38' E 121°08'0 0.0
2014-Sep-06 21:32N 37°38' E 121°08'0 0.0
2014-Sep-06 20:32N 37°38' E 121°08'0 0.0
2014-Sep-06 19:32N 37°38' E 121°08'0 0.0
2014-Sep-06 18:32N 37°38' E 121°08'0 0.0
2014-Sep-06 17:32N 37°38' E 121°08'0 0.0
2014-Sep-06 16:26N 37°38' E 121°08'0 0.0
2014-Sep-06 15:20N 37°38' E 121°08'0 0.0
2014-Sep-06 14:32N 37°38' E 121°08'0 0.0
2014-Sep-06 13:32N 37°38' E 121°08'0 0.0
2014-Sep-06 12:32N 37°38' E 121°08'0 0.0
2014-Sep-06 11:26N 37°38' E 121°08'0 0.0
2014-Sep-06 10:32N 37°38' E 121°08'0 0.0
2014-Sep-06 09:32N 37°38' E 121°08'0 0.0
2014-Sep-06 08:32N 37°38' E 121°08'0 0.0
2014-Sep-06 05:08N 37°38' E 121°08'0 0.0
2014-Sep-06 03:32N 37°38' E 121°08'0 0.0
2014-Sep-06 01:26N 37°38' E 121°08'0 0.0
2014-Sep-06 00:08N 37°38' E 121°08'0 0.0
2014-Sep-05 23:32N 37°38' E 121°08'0 0.0
2014-Sep-05 22:32N 37°38' E 121°08'0 0.0
2014-Sep-05 21:32N 37°38' E 121°08'0 0.0
2014-Sep-05 15:20N 37°38' E 121°08'0 0.0
2014-Sep-05 14:32N 37°38' E 121°08'0 0.0
2014-Sep-05 13:26N 37°38' E 121°08'0 0.0
2014-Sep-05 10:32N 37°38' E 121°08'0 0.0
2014-Sep-05 08:26N 37°38' E 121°08'0 0.0
2014-Sep-05 07:32N 37°38' E 121°08'0 0.0
2014-Sep-05 06:32N 37°38' E 121°08'0 0.0
2014-Sep-05 05:32N 37°38' E 121°08'0 0.0
2014-Sep-05 04:32N 37°38' E 121°08'0 0.0
2014-Sep-05 02:32N 37°38' E 121°08'0 0.0
2014-Sep-05 01:20N 37°38' E 121°08'0 0.0
2014-Sep-05 00:32N 37°38' E 121°08'0 0.0
2014-Sep-04 23:32N 37°38' E 121°08'0 0.0
2014-Sep-04 22:32N 37°38' E 121°08'0 0.0
2014-Sep-04 21:32N 37°38' E 121°08'0 0.0
2014-Sep-04 20:26N 37°38' E 121°08'0 0.0
2014-Sep-04 16:32N 37°38' E 121°08'0 0.0
2014-Sep-04 15:21N 37°38' E 121°08'0 0.0
2014-Sep-04 14:32N 37°38' E 121°08'0 0.0
2014-Sep-04 13:26N 37°38' E 121°08'0 0.0
2014-Sep-04 12:32N 37°38' E 121°08'0 0.0
2014-Sep-04 11:26N 37°38' E 121°08'0 0.0
2014-Sep-04 10:20N 37°38' E 121°08'0 0.2
2014-Sep-04 09:33N 37°38' E 121°09'6 6.1
2014-Sep-04 08:33N 37°38' E 121°16'4 3.8
2014-Sep-04 07:33N 37°40' E 121°20'7 7.3
2014-Sep-04 06:33N 37°41' E 121°29'2 1.1
2014-Sep-04 05:09N 37°40' E 121°31'0 0.1
2014-Sep-04 04:21N 37°40' E 121°31'0 0.0
2014-Sep-04 03:33N 37°40' E 121°31'0 0.0
2014-Sep-04 02:27N 37°40' E 121°31'0 0.0
2014-Sep-04 01:33N 37°40' E 121°31'0 0.0
2014-Sep-04 00:15N 37°40' E 121°31'0 0.0
2014-Sep-03 23:33N 37°40' E 121°31'0 0.1
2014-Sep-03 22:33N 37°40' E 121°31'0 0.0
2014-Sep-03 21:33N 37°40' E 121°31'0 0.0
2014-Sep-03 20:33N 37°40' E 121°31'0 0.0
2014-Sep-03 19:33N 37°40' E 121°31'0 0.0
2014-Sep-03 18:33N 37°40' E 121°31'0 0.0
2014-Sep-03 17:33N 37°40' E 121°31'0 0.0
2014-Sep-03 16:33N 37°40' E 121°31'0 0.0
2014-Sep-03 15:33N 37°40' E 121°31'0 0.0
2014-Sep-03 14:33N 37°40' E 121°31'0 0.0
2014-Sep-03 13:33N 37°40' E 121°31'0 0.0
2014-Sep-03 12:33N 37°40' E 121°31'0 0.0
2014-Sep-03 11:33N 37°40' E 121°31'0 0.0
2014-Sep-03 10:33N 37°40' E 121°31'0 0.0
2014-Sep-03 09:33N 37°40' E 121°31'0 0.0
2014-Sep-03 08:34N 37°40' E 121°31'0 0.0
2014-Sep-03 07:33N 37°40' E 121°31'3 2.9
2014-Sep-03 06:33N 37°40' E 121°35'7 7.2
2014-Sep-03 05:33N 37°40' E 121°44'7 7.4
2014-Sep-03 04:33N 37°40' E 121°54'8 7.6
2014-Sep-03 03:32N 37°41' E 122°03'8 8.0
2014-Sep-03 02:33N 37°40' E 122°13'8 8.0
2014-Sep-03 01:33N 37°40' E 122°23'8 7.6
2014-Sep-03 00:32N 37°40' E 122°33'  
Track history (hours):
 
Tides and Currents Weather Stations Pressure Air Temp Water Temp Dewpoint Dewpoint Depression Visibility Wind Speed Wind Dir Waves Ship Positions

Chang Sheng

Last reported at 2014-Sep-12 12:11 UTC. Time now 2014-Sep-22 22:14 UTC.
Position N 36°42' E 122°42'.
Warning: this ship's position is 10 days out of date.

Length 86 m; draft 5.9 m.

Type: Cargo ship. MMSI: 312161000.

Date/timePositionNaut miles runAvg speedWind from/ knotsBaromVisibWave heightAir tempDewpointWater temp
2014-Sep-12 12:11N 36°42' E 122°42'5 7.6
2014-Sep-12 11:33N 36°46' E 122°38'8 7.7
2014-Sep-12 10:33N 36°51' E 122°31'2 0.1
2014-Sep-11 19:32N 36°52' E 122°32'9 9.3
2014-Sep-11 18:33N 36°59' E 122°39'1010.0
2014-Sep-11 17:33N 37°08' E 122°45'10 9.9
2014-Sep-11 16:33N 37°18' E 122°47'12 9.0
2014-Sep-11 15:14N 37°30' E 122°44'13 7.2
2014-Sep-11 13:30N 37°35' E 122°29'6 6.6
2014-Sep-11 12:33N 37°37' E 122°22'7 6.5
2014-Sep-11 11:30N 37°39' E 122°13'6 6.7
2014-Sep-11 10:32N 37°41' E 122°06'7 7.3
2014-Sep-11 09:33N 37°43' E 121°57'8 7.7
2014-Sep-11 08:32N 37°45' E 121°48'8 7.9
2014-Sep-11 07:33N 37°48' E 121°38'8 7.7
2014-Sep-11 06:32N 37°50' E 121°29'7 7.2
2014-Sep-11 05:33N 37°52' E 121°20'7 7.0
2014-Sep-11 04:33N 37°55' E 121°12'8 6.9
2014-Sep-11 03:25N 37°57' E 121°03'108 7.7
2014-Sep-10 13:27N 38°45' E 118°59'8 8.8
2014-Sep-10 12:33N 38°47' E 118°49'19 9.4
2014-Sep-10 10:30N 38°49' E 118°24'23 7.9
2014-Sep-10 07:33N 38°57' E 117°56'7 7.4
2014-Sep-10 06:33N 38°58' E 117°47'1 0.9
2014-Sep-10 05:31N 38°59' E 117°46'0 0.0
2014-Sep-10 04:31N 38°59' E 117°46'0 0.0
2014-Sep-10 03:31N 38°59' E 117°46'0 0.0
2014-Sep-10 02:31N 38°59' E 117°46'0 0.0
2014-Sep-10 01:31N 38°59' E 117°46'0 0.0
2014-Sep-10 00:25N 38°59' E 117°46'0 0.0
2014-Sep-09 23:13N 38°59' E 117°46'0 0.0
2014-Sep-09 22:25N 38°59' E 117°46'0 0.0
2014-Sep-09 21:25N 38°59' E 117°46'0 0.0
2014-Sep-09 20:31N 38°59' E 117°46'4 4.2
2014-Sep-09 19:33N 38°58' E 117°51'7 5.8
2014-Sep-09 18:17N 38°59' E 118°00'0 0.0
2014-Sep-09 13:26N 38°59' E 118°00'0 0.0
2014-Sep-09 10:32N 38°59' E 118°00'0 0.0
2014-Sep-09 09:32N 38°59' E 118°00'0 0.0
2014-Sep-09 05:14N 38°59' E 118°00'0 0.0
2014-Sep-09 01:20N 38°59' E 118°00'0 0.0
2014-Sep-09 00:20N 38°59' E 118°00'0 0.0
2014-Sep-08 23:07N 38°59' E 118°00'0 0.0
2014-Sep-08 21:32N 38°59' E 118°00'0 0.0
2014-Sep-08 20:32N 38°59' E 118°00'0 0.0
2014-Sep-08 19:13N 38°59' E 118°00'0 0.0
2014-Sep-08 15:32N 38°59' E 118°00'0 0.0
2014-Sep-08 12:08N 38°59' E 118°00'0 0.0
2014-Sep-08 09:26N 38°59' E 118°00'0 0.0
2014-Sep-08 08:20N 38°59' E 118°00'0 0.0
2014-Sep-08 01:31N 38°59' E 118°00'0 0.1
2014-Sep-08 00:25N 38°59' E 118°00'0 0.0
2014-Sep-07 23:20N 38°59' E 118°00'169 8.1
2014-Sep-07 02:32N 37°46' E 121°14'7 7.4
2014-Sep-07 01:33N 37°39' E 121°17'7 5.9
2014-Sep-07 00:26N 37°38' E 121°08'0 0.0
2014-Sep-06 23:32N 37°38' E 121°08'0 0.0
2014-Sep-06 22:32N 37°38' E 121°08'0 0.0
2014-Sep-06 21:32N 37°38' E 121°08'0 0.0
2014-Sep-06 20:32N 37°38' E 121°08'0 0.0
2014-Sep-06 19:32N 37°38' E 121°08'0 0.0
2014-Sep-06 18:32N 37°38' E 121°08'0 0.0
2014-Sep-06 17:32N 37°38' E 121°08'0 0.0
2014-Sep-06 16:26N 37°38' E 121°08'0 0.0
2014-Sep-06 15:20N 37°38' E 121°08'0 0.0
2014-Sep-06 14:32N 37°38' E 121°08'0 0.0
2014-Sep-06 13:32N 37°38' E 121°08'0 0.0
2014-Sep-06 12:32N 37°38' E 121°08'0 0.0
2014-Sep-06 11:26N 37°38' E 121°08'0 0.0
2014-Sep-06 10:32N 37°38' E 121°08'0 0.0
2014-Sep-06 09:32N 37°38' E 121°08'0 0.0
2014-Sep-06 08:32N 37°38' E 121°08'0 0.0
2014-Sep-06 05:08N 37°38' E 121°08'0 0.0
2014-Sep-06 03:32N 37°38' E 121°08'0 0.0
2014-Sep-06 01:26N 37°38' E 121°08'0 0.0
2014-Sep-06 00:08N 37°38' E 121°08'0 0.0
2014-Sep-05 23:32N 37°38' E 121°08'0 0.0
2014-Sep-05 22:32N 37°38' E 121°08'0 0.0
2014-Sep-05 21:32N 37°38' E 121°08'0 0.0
2014-Sep-05 15:20N 37°38' E 121°08'0 0.0
2014-Sep-05 14:32N 37°38' E 121°08'0 0.0
2014-Sep-05 13:26N 37°38' E 121°08'0 0.0
2014-Sep-05 10:32N 37°38' E 121°08'0 0.0
2014-Sep-05 08:26N 37°38' E 121°08'0 0.0
2014-Sep-05 07:32N 37°38' E 121°08'0 0.0
2014-Sep-05 06:32N 37°38' E 121°08'0 0.0
2014-Sep-05 05:32N 37°38' E 121°08'0 0.0
2014-Sep-05 04:32N 37°38' E 121°08'0 0.0
2014-Sep-05 02:32N 37°38' E 121°08'0 0.0
2014-Sep-05 01:20N 37°38' E 121°08'0 0.0
2014-Sep-05 00:32N 37°38' E 121°08'0 0.0
2014-Sep-04 23:32N 37°38' E 121°08'0 0.0
2014-Sep-04 22:32N 37°38' E 121°08'0 0.0
2014-Sep-04 21:32N 37°38' E 121°08'0 0.0
2014-Sep-04 20:26N 37°38' E 121°08'0 0.0
2014-Sep-04 16:32N 37°38' E 121°08'0 0.0
2014-Sep-04 15:21N 37°38' E 121°08'0 0.0
2014-Sep-04 14:32N 37°38' E 121°08'0 0.0
2014-Sep-04 13:26N 37°38' E 121°08'0 0.0
2014-Sep-04 12:32N 37°38' E 121°08'0 0.0
2014-Sep-04 11:26N 37°38' E 121°08'0 0.0
2014-Sep-04 10:20N 37°38' E 121°08'0 0.2
2014-Sep-04 09:33N 37°38' E 121°09'6 6.1
2014-Sep-04 08:33N 37°38' E 121°16'4 3.8
2014-Sep-04 07:33N 37°40' E 121°20'7 7.3
2014-Sep-04 06:33N 37°41' E 121°29'2 1.1
2014-Sep-04 05:09N 37°40' E 121°31'0 0.1
2014-Sep-04 04:21N 37°40' E 121°31'0 0.0
2014-Sep-04 03:33N 37°40' E 121°31'0 0.0
2014-Sep-04 02:27N 37°40' E 121°31'0 0.0
2014-Sep-04 01:33N 37°40' E 121°31'0 0.0
2014-Sep-04 00:15N 37°40' E 121°31'0 0.0
2014-Sep-03 23:33N 37°40' E 121°31'0 0.1
2014-Sep-03 22:33N 37°40' E 121°31'0 0.0
2014-Sep-03 21:33N 37°40' E 121°31'0 0.0
2014-Sep-03 20:33N 37°40' E 121°31'0 0.0
2014-Sep-03 19:33N 37°40' E 121°31'0 0.0
2014-Sep-03 18:33N 37°40' E 121°31'0 0.0
2014-Sep-03 17:33N 37°40' E 121°31'0 0.0
2014-Sep-03 16:33N 37°40' E 121°31'0 0.0
2014-Sep-03 15:33N 37°40' E 121°31'0 0.0
2014-Sep-03 14:33N 37°40' E 121°31'0 0.0
2014-Sep-03 13:33N 37°40' E 121°31'0 0.0
2014-Sep-03 12:33N 37°40' E 121°31'0 0.0
2014-Sep-03 11:33N 37°40' E 121°31'0 0.0
2014-Sep-03 10:33N 37°40' E 121°31'0 0.0
2014-Sep-03 09:33N 37°40' E 121°31'0 0.0
2014-Sep-03 08:34N 37°40' E 121°31'0 0.0
2014-Sep-03 07:33N 37°40' E 121°31'3 2.9
2014-Sep-03 06:33N 37°40' E 121°35'7 7.2
2014-Sep-03 05:33N 37°40' E 121°44'7 7.4
2014-Sep-03 04:33N 37°40' E 121°54'8 7.6
2014-Sep-03 03:32N 37°41' E 122°03'8 8.0
2014-Sep-03 02:33N 37°40' E 122°13'8 8.0
2014-Sep-03 01:33N 37°40' E 122°23'8 7.6
2014-Sep-03 00:32N 37°40' E 122°33'  

Dump ship's entire track history